To NAV CANADA Home Page Login to a new session Search on AWWS site Feedback and Comments Disclaimer Vers la page française équivalente Tips FAQ What's new on the site To the Forecasts and Observations / NOTAM section To "File a Flight Plan" website Publications and other links Update of the User's profile FIC Telephone Numbers My Weather Data Folder Route Weather Data Regional Weather Data Local Weather Data To the Forecasts and Observations / NOTAM section
Request Generated 01/17/2017 at 04:44:16 UTC . Weather information available at that time is displayed.

METAR/TAF

MARYS HARBOUR/NL    (show WxCam)

SPECI CYMH 170440Z AUTO 12009KT 1 1/2SM -SN FEW014 OVC150 M11/M12
A2982 RMK SLP101=
SPECI CYMH 170417Z AUTO 11007KT 1 3/4SM -SN OVC150 M13/M13 A2984 RMK
VIS VRB 1-3 PRESFR SLP107=
METAR CYMH 170400Z AUTO 10004KT 090V220 1 1/4SM -SN OVC150 M18/M19
A2985 RMK PRESFR SLP112=
METAR CYMH 170300Z AUTO 00000KT 1SM -SN OVC140 M18/M20 A2990 RMK
SLP129=
METAR CYMH 170200Z AUTO 22004KT 1SM -SN OVC150 M19/M20 A2995 RMK
SLP145=

*** REMARK        : Forecast period has ended; this was the last TAF issued
*** REMARQUE : La période de prévision est échue; ceci était le dernier TAF qui a été émis
TAF CYMH 170146Z 1702/1704 VRB03KT 11/2SM -SN BKN015 OVC080 TEMPO
1702/1704 6SM -SN SCT015 OVC080
BECMG 1702/1704 14008KT
RMK FCST BASED ON AUTO OBS. NXT FCST WILL BE ISSUED AT 170945Z=
Your time UTC time
Weather data provided by Environment Canada and NAV CANADA